sensor_id;sensor_type;location;lat;lon;timestamp;P1;durP1;ratioP1;P2;durP2;ratioP2
73650;SDS011;61944;52.538;6.108;2023-04-03T00:00:51;1.92;;;1.45;;
73650;SDS011;61944;52.538;6.108;2023-04-03T00:03:17;3.63;;;1.58;;
73650;SDS011;61944;52.538;6.108;2023-04-03T00:05:43;2.63;;;1.75;;
73650;SDS011;61944;52.538;6.108;2023-04-03T00:08:09;4.93;;;2.00;;
73650;SDS011;61944;52.538;6.108;2023-04-03T00:10:35;4.47;;;2.30;;
73650;SDS011;61944;52.538;6.108;2023-04-03T00:13:01;2.22;;;1.60;;
73650;SDS011;61944;52.538;6.108;2023-04-03T00:15:27;1.75;;;1.23;;
73650;SDS011;61944;52.538;6.108;2023-04-03T00:17:53;9.65;;;3.03;;
73650;SDS011;61944;52.538;6.108;2023-04-03T00:20:18;3.08;;;2.10;;
73650;SDS011;61944;52.538;6.108;2023-04-03T00:22:43;3.00;;;1.60;;
73650;SDS011;61944;52.538;6.108;2023-04-03T00:25:09;2.38;;;1.70;;
73650;SDS011;61944;52.538;6.108;2023-04-03T00:27:36;6.22;;;1.88;;
73650;SDS011;61944;52.538;6.108;2023-04-03T00:30:03;3.22;;;2.05;;
73650;SDS011;61944;52.538;6.108;2023-04-03T00:32:29;3.22;;;1.65;;
73650;SDS011;61944;52.538;6.108;2023-04-03T00:34:54;3.13;;;2.00;;
73650;SDS011;61944;52.538;6.108;2023-04-03T00:37:19;2.92;;;1.98;;
73650;SDS011;61944;52.538;6.108;2023-04-03T00:39:45;2.47;;;1.70;;
73650;SDS011;61944;52.538;6.108;2023-04-03T00:42:11;2.13;;;1.55;;
73650;SDS011;61944;52.538;6.108;2023-04-03T00:47:02;3.60;;;1.60;;
73650;SDS011;61944;52.538;6.108;2023-04-03T00:49:30;5.57;;;2.95;;
73650;SDS011;61944;52.538;6.108;2023-04-03T00:51:56;6.38;;;2.10;;
73650;SDS011;61944;52.538;6.108;2023-04-03T00:54:23;5.88;;;1.83;;
73650;SDS011;61944;52.538;6.108;2023-04-03T00:56:50;3.88;;;2.00;;
73650;SDS011;61944;52.538;6.108;2023-04-03T00:59:18;2.97;;;1.60;;
73650;SDS011;61944;52.538;6.108;2023-04-03T01:01:48;5.65;;;2.40;;
73650;SDS011;61944;52.538;6.108;2023-04-03T01:04:31;4.25;;;2.60;;
73650;SDS011;61944;52.538;6.108;2023-04-03T01:07:04;2.42;;;1.90;;
73650;SDS011;61944;52.538;6.108;2023-04-03T01:09:36;3.42;;;1.90;;
73650;SDS011;61944;52.538;6.108;2023-04-03T01:12:13;3.72;;;1.92;;
73650;SDS011;61944;52.538;6.108;2023-04-03T01:15:12;3.65;;;1.67;;
73650;SDS011;61944;52.538;6.108;2023-04-03T01:17:51;2.35;;;2.00;;
73650;SDS011;61944;52.538;6.108;2023-04-03T01:25:23;3.10;;;1.73;;
73650;SDS011;61944;52.538;6.108;2023-04-03T01:27:49;3.55;;;2.00;;
73650;SDS011;61944;52.538;6.108;2023-04-03T01:30:16;2.47;;;1.70;;
73650;SDS011;61944;52.538;6.108;2023-04-03T01:32:43;3.83;;;2.13;;
73650;SDS011;61944;52.538;6.108;2023-04-03T01:35:09;2.67;;;1.83;;
73650;SDS011;61944;52.538;6.108;2023-04-03T01:37:35;3.50;;;1.98;;
73650;SDS011;61944;52.538;6.108;2023-04-03T01:40:01;4.50;;;2.15;;
73650;SDS011;61944;52.538;6.108;2023-04-03T01:42:27;10.48;;;2.15;;
73650;SDS011;61944;52.538;6.108;2023-04-03T01:44:52;3.47;;;2.00;;
73650;SDS011;61944;52.538;6.108;2023-04-03T01:47:18;6.57;;;2.35;;
73650;SDS011;61944;52.538;6.108;2023-04-03T01:49:43;3.17;;;1.90;;
73650;SDS011;61944;52.538;6.108;2023-04-03T01:52:08;4.22;;;1.60;;
73650;SDS011;61944;52.538;6.108;2023-04-03T01:54:34;5.28;;;2.05;;
73650;SDS011;61944;52.538;6.108;2023-04-03T01:57:00;5.80;;;2.00;;
73650;SDS011;61944;52.538;6.108;2023-04-03T01:59:26;5.00;;;2.33;;
73650;SDS011;61944;52.538;6.108;2023-04-03T02:01:51;4.50;;;1.90;;
73650;SDS011;61944;52.538;6.108;2023-04-03T02:04:16;4.18;;;2.13;;
73650;SDS011;61944;52.538;6.108;2023-04-03T02:06:42;5.78;;;2.63;;
73650;SDS011;61944;52.538;6.108;2023-04-03T02:09:07;4.07;;;2.00;;
73650;SDS011;61944;52.538;6.108;2023-04-03T02:11:33;4.93;;;2.17;;
73650;SDS011;61944;52.538;6.108;2023-04-03T02:13:58;3.17;;;1.98;;
73650;SDS011;61944;52.538;6.108;2023-04-03T02:16:23;5.82;;;2.30;;
73650;SDS011;61944;52.538;6.108;2023-04-03T02:18:49;4.95;;;2.30;;
73650;SDS011;61944;52.538;6.108;2023-04-03T02:21:14;4.50;;;2.22;;
73650;SDS011;61944;52.538;6.108;2023-04-03T02:23:40;3.50;;;2.05;;
73650;SDS011;61944;52.538;6.108;2023-04-03T02:26:06;6.55;;;2.10;;
73650;SDS011;61944;52.538;6.108;2023-04-03T02:28:33;4.53;;;2.13;;
73650;SDS011;61944;52.538;6.108;2023-04-03T02:30:59;4.30;;;2.83;;
73650;SDS011;61944;52.538;6.108;2023-04-03T02:33:24;8.40;;;2.88;;
73650;SDS011;61944;52.538;6.108;2023-04-03T02:35:56;5.25;;;1.92;;
73650;SDS011;61944;52.538;6.108;2023-04-03T02:38:22;8.13;;;2.00;;
73650;SDS011;61944;52.538;6.108;2023-04-03T02:40:48;5.22;;;2.60;;
73650;SDS011;61944;52.538;6.108;2023-04-03T02:43:13;4.65;;;1.85;;
73650;SDS011;61944;52.538;6.108;2023-04-03T02:45:39;2.72;;;1.83;;
73650;SDS011;61944;52.538;6.108;2023-04-03T02:48:04;4.97;;;2.15;;
73650;SDS011;61944;52.538;6.108;2023-04-03T02:50:30;4.78;;;1.85;;
73650;SDS011;61944;52.538;6.108;2023-04-03T02:52:55;17.13;;;3.47;;
73650;SDS011;61944;52.538;6.108;2023-04-03T02:55:21;4.70;;;2.08;;
73650;SDS011;61944;52.538;6.108;2023-04-03T02:57:46;5.28;;;2.28;;
73650;SDS011;61944;52.538;6.108;2023-04-03T03:00:12;3.72;;;2.05;;
73650;SDS011;61944;52.538;6.108;2023-04-03T03:02:38;2.97;;;1.98;;
73650;SDS011;61944;52.538;6.108;2023-04-03T03:05:03;4.20;;;2.20;;
73650;SDS011;61944;52.538;6.108;2023-04-03T03:07:29;7.10;;;2.83;;
73650;SDS011;61944;52.538;6.108;2023-04-03T03:09:54;2.65;;;1.83;;
73650;SDS011;61944;52.538;6.108;2023-04-03T03:12:20;5.75;;;1.98;;
73650;SDS011;61944;52.538;6.108;2023-04-03T03:14:47;5.57;;;3.08;;
73650;SDS011;61944;52.538;6.108;2023-04-03T03:17:12;5.45;;;2.67;;
73650;SDS011;61944;52.538;6.108;2023-04-03T03:19:38;4.85;;;2.50;;
73650;SDS011;61944;52.538;6.108;2023-04-03T03:22:03;3.85;;;2.55;;
73650;SDS011;61944;52.538;6.108;2023-04-03T03:24:29;5.03;;;2.78;;
73650;SDS011;61944;52.538;6.108;2023-04-03T03:26:54;3.35;;;2.20;;
73650;SDS011;61944;52.538;6.108;2023-04-03T03:29:20;3.75;;;2.10;;
73650;SDS011;61944;52.538;6.108;2023-04-03T03:31:45;3.47;;;1.92;;
73650;SDS011;61944;52.538;6.108;2023-04-03T03:34:11;4.90;;;2.95;;
73650;SDS011;61944;52.538;6.108;2023-04-03T03:36:37;4.38;;;2.67;;
73650;SDS011;61944;52.538;6.108;2023-04-03T03:39:02;6.38;;;2.30;;
73650;SDS011;61944;52.538;6.108;2023-04-03T03:41:28;7.30;;;2.53;;
73650;SDS011;61944;52.538;6.108;2023-04-03T03:43:53;5.82;;;2.10;;
73650;SDS011;61944;52.538;6.108;2023-04-03T03:46:18;3.90;;;2.72;;
73650;SDS011;61944;52.538;6.108;2023-04-03T03:48:44;3.65;;;1.98;;
73650;SDS011;61944;52.538;6.108;2023-04-03T03:51:09;6.00;;;2.25;;
73650;SDS011;61944;52.538;6.108;2023-04-03T03:53:35;6.15;;;2.17;;
73650;SDS011;61944;52.538;6.108;2023-04-03T03:56:00;7.65;;;2.90;;
73650;SDS011;61944;52.538;6.108;2023-04-03T03:58:26;6.63;;;2.20;;
73650;SDS011;61944;52.538;6.108;2023-04-03T04:00:51;2.80;;;2.30;;
73650;SDS011;61944;52.538;6.108;2023-04-03T04:03:17;7.38;;;2.40;;
73650;SDS011;61944;52.538;6.108;2023-04-03T04:05:42;6.38;;;2.50;;
73650;SDS011;61944;52.538;6.108;2023-04-03T04:08:08;4.35;;;2.63;;
73650;SDS011;61944;52.538;6.108;2023-04-03T04:10:33;3.83;;;2.92;;
73650;SDS011;61944;52.538;6.108;2023-04-03T04:13:00;5.28;;;2.47;;
73650;SDS011;61944;52.538;6.108;2023-04-03T04:15:25;8.13;;;2.97;;
73650;SDS011;61944;52.538;6.108;2023-04-03T04:17:51;2.88;;;2.03;;
73650;SDS011;61944;52.538;6.108;2023-04-03T04:20:18;5.22;;;2.42;;
73650;SDS011;61944;52.538;6.108;2023-04-03T04:22:43;4.40;;;2.20;;
73650;SDS011;61944;52.538;6.108;2023-04-03T04:25:09;3.40;;;2.10;;
73650;SDS011;61944;52.538;6.108;2023-04-03T04:27:34;4.20;;;2.33;;
73650;SDS011;61944;52.538;6.108;2023-04-03T04:30:00;5.30;;;2.55;;
73650;SDS011;61944;52.538;6.108;2023-04-03T04:32:26;5.65;;;2.33;;
73650;SDS011;61944;52.538;6.108;2023-04-03T04:34:51;5.60;;;2.72;;
73650;SDS011;61944;52.538;6.108;2023-04-03T04:37:16;7.15;;;2.80;;
73650;SDS011;61944;52.538;6.108;2023-04-03T04:39:42;11.27;;;3.08;;
73650;SDS011;61944;52.538;6.108;2023-04-03T04:42:07;8.75;;;3.25;;
73650;SDS011;61944;52.538;6.108;2023-04-03T04:44:37;5.18;;;2.83;;
73650;SDS011;61944;52.538;6.108;2023-04-03T04:47:03;6.97;;;2.42;;
73650;SDS011;61944;52.538;6.108;2023-04-03T04:49:29;7.53;;;2.65;;
73650;SDS011;61944;52.538;6.108;2023-04-03T04:51:54;6.25;;;2.70;;
73650;SDS011;61944;52.538;6.108;2023-04-03T04:54:19;7.97;;;2.38;;
73650;SDS011;61944;52.538;6.108;2023-04-03T04:56:45;7.00;;;2.50;;
73650;SDS011;61944;52.538;6.108;2023-04-03T04:59:10;9.82;;;3.30;;
73650;SDS011;61944;52.538;6.108;2023-04-03T05:01:36;3.35;;;1.90;;
73650;SDS011;61944;52.538;6.108;2023-04-03T05:04:01;4.05;;;2.50;;
73650;SDS011;61944;52.538;6.108;2023-04-03T05:06:27;9.48;;;3.67;;
73650;SDS011;61944;52.538;6.108;2023-04-03T05:08:52;5.30;;;2.88;;
73650;SDS011;61944;52.538;6.108;2023-04-03T05:11:17;4.28;;;2.58;;
73650;SDS011;61944;52.538;6.108;2023-04-03T05:13:43;12.07;;;3.72;;
73650;SDS011;61944;52.538;6.108;2023-04-03T05:16:08;3.60;;;2.35;;
73650;SDS011;61944;52.538;6.108;2023-04-03T05:18:33;10.15;;;3.13;;
73650;SDS011;61944;52.538;6.108;2023-04-03T05:20:59;6.18;;;3.10;;
73650;SDS011;61944;52.538;6.108;2023-04-03T05:23:24;7.35;;;3.25;;
73650;SDS011;61944;52.538;6.108;2023-04-03T05:25:50;7.07;;;3.08;;
73650;SDS011;61944;52.538;6.108;2023-04-03T05:28:15;5.53;;;2.55;;
73650;SDS011;61944;52.538;6.108;2023-04-03T05:30:41;4.97;;;2.90;;
73650;SDS011;61944;52.538;6.108;2023-04-03T05:33:06;5.80;;;3.00;;
73650;SDS011;61944;52.538;6.108;2023-04-03T05:35:31;5.10;;;2.67;;
73650;SDS011;61944;52.538;6.108;2023-04-03T05:37:57;7.22;;;3.30;;
73650;SDS011;61944;52.538;6.108;2023-04-03T05:40:22;4.32;;;2.83;;
73650;SDS011;61944;52.538;6.108;2023-04-03T05:42:48;6.00;;;2.65;;
73650;SDS011;61944;52.538;6.108;2023-04-03T05:45:15;8.23;;;2.83;;
73650;SDS011;61944;52.538;6.108;2023-04-03T05:47:41;7.68;;;3.08;;
73650;SDS011;61944;52.538;6.108;2023-04-03T05:50:06;7.82;;;2.90;;
73650;SDS011;61944;52.538;6.108;2023-04-03T05:52:33;9.32;;;2.42;;
73650;SDS011;61944;52.538;6.108;2023-04-03T05:55:01;7.95;;;3.38;;
73650;SDS011;61944;52.538;6.108;2023-04-03T05:57:27;8.50;;;3.75;;
73650;SDS011;61944;52.538;6.108;2023-04-03T05:59:52;8.93;;;3.15;;
73650;SDS011;61944;52.538;6.108;2023-04-03T06:02:20;6.43;;;2.70;;
73650;SDS011;61944;52.538;6.108;2023-04-03T06:04:47;6.35;;;2.30;;
73650;SDS011;61944;52.538;6.108;2023-04-03T06:07:13;7.50;;;2.67;;
73650;SDS011;61944;52.538;6.108;2023-04-03T06:09:41;3.25;;;2.38;;
73650;SDS011;61944;52.538;6.108;2023-04-03T06:12:07;7.88;;;2.90;;
73650;SDS011;61944;52.538;6.108;2023-04-03T06:14:33;5.18;;;2.88;;
73650;SDS011;61944;52.538;6.108;2023-04-03T06:16:59;6.20;;;3.33;;
73650;SDS011;61944;52.538;6.108;2023-04-03T06:19:25;5.10;;;2.72;;
73650;SDS011;61944;52.538;6.108;2023-04-03T06:21:51;4.70;;;2.65;;
73650;SDS011;61944;52.538;6.108;2023-04-03T06:24:17;6.95;;;3.83;;
73650;SDS011;61944;52.538;6.108;2023-04-03T06:26:43;8.30;;;3.25;;
73650;SDS011;61944;52.538;6.108;2023-04-03T06:29:09;5.78;;;2.83;;
73650;SDS011;61944;52.538;6.108;2023-04-03T06:31:35;6.05;;;3.28;;
73650;SDS011;61944;52.538;6.108;2023-04-03T06:34:01;8.38;;;2.80;;
73650;SDS011;61944;52.538;6.108;2023-04-03T06:36:27;8.60;;;3.15;;
73650;SDS011;61944;52.538;6.108;2023-04-03T06:38:53;10.18;;;3.28;;
73650;SDS011;61944;52.538;6.108;2023-04-03T06:41:19;5.68;;;2.70;;
73650;SDS011;61944;52.538;6.108;2023-04-03T06:43:44;10.23;;;3.25;;
73650;SDS011;61944;52.538;6.108;2023-04-03T06:46:20;9.55;;;2.75;;
73650;SDS011;61944;52.538;6.108;2023-04-03T06:48:47;8.23;;;3.60;;
73650;SDS011;61944;52.538;6.108;2023-04-03T06:51:23;6.60;;;3.20;;
73650;SDS011;61944;52.538;6.108;2023-04-03T06:53:52;10.20;;;3.10;;
73650;SDS011;61944;52.538;6.108;2023-04-03T06:56:20;8.70;;;3.03;;
73650;SDS011;61944;52.538;6.108;2023-04-03T06:58:47;5.65;;;2.83;;
73650;SDS011;61944;52.538;6.108;2023-04-03T07:01:13;8.68;;;3.83;;
73650;SDS011;61944;52.538;6.108;2023-04-03T07:03:40;7.60;;;2.55;;
73650;SDS011;61944;52.538;6.108;2023-04-03T07:06:06;5.45;;;2.70;;
73650;SDS011;61944;52.538;6.108;2023-04-03T07:08:32;7.95;;;2.38;;
73650;SDS011;61944;52.538;6.108;2023-04-03T07:10:58;6.75;;;2.83;;
73650;SDS011;61944;52.538;6.108;2023-04-03T07:13:24;8.20;;;3.00;;
73650;SDS011;61944;52.538;6.108;2023-04-03T07:15:50;9.57;;;3.45;;
73650;SDS011;61944;52.538;6.108;2023-04-03T07:18:15;10.60;;;3.17;;
73650;SDS011;61944;52.538;6.108;2023-04-03T07:20:42;9.02;;;4.07;;
73650;SDS011;61944;52.538;6.108;2023-04-03T07:23:08;5.38;;;2.80;;
73650;SDS011;61944;52.538;6.108;2023-04-03T07:25:33;6.18;;;2.70;;
73650;SDS011;61944;52.538;6.108;2023-04-03T07:27:59;5.18;;;2.42;;
73650;SDS011;61944;52.538;6.108;2023-04-03T07:30:24;4.60;;;2.65;;
73650;SDS011;61944;52.538;6.108;2023-04-03T07:32:50;5.25;;;2.47;;
73650;SDS011;61944;52.538;6.108;2023-04-03T07:35:16;5.57;;;2.88;;
73650;SDS011;61944;52.538;6.108;2023-04-03T07:37:42;8.20;;;2.55;;
73650;SDS011;61944;52.538;6.108;2023-04-03T07:40:07;3.55;;;2.10;;
73650;SDS011;61944;52.538;6.108;2023-04-03T07:42:34;9.05;;;2.20;;
73650;SDS011;61944;52.538;6.108;2023-04-03T07:45:00;11.40;;;2.65;;
73650;SDS011;61944;52.538;6.108;2023-04-03T07:47:25;5.18;;;1.90;;
73650;SDS011;61944;52.538;6.108;2023-04-03T07:49:51;8.18;;;2.65;;
73650;SDS011;61944;52.538;6.108;2023-04-03T07:52:17;3.55;;;2.03;;
73650;SDS011;61944;52.538;6.108;2023-04-03T07:54:42;7.53;;;2.47;;
73650;SDS011;61944;52.538;6.108;2023-04-03T07:57:07;8.00;;;3.13;;
73650;SDS011;61944;52.538;6.108;2023-04-03T07:59:33;3.72;;;2.15;;
73650;SDS011;61944;52.538;6.108;2023-04-03T08:01:58;7.43;;;2.22;;
73650;SDS011;61944;52.538;6.108;2023-04-03T08:04:24;6.18;;;2.47;;
73650;SDS011;61944;52.538;6.108;2023-04-03T08:06:51;4.35;;;2.10;;
73650;SDS011;61944;52.538;6.108;2023-04-03T08:09:16;3.70;;;1.92;;
73650;SDS011;61944;52.538;6.108;2023-04-03T08:11:42;2.58;;;1.52;;
73650;SDS011;61944;52.538;6.108;2023-04-03T08:14:09;7.35;;;2.05;;
73650;SDS011;61944;52.538;6.108;2023-04-03T08:16:40;3.28;;;1.80;;
73650;SDS011;61944;52.538;6.108;2023-04-03T08:19:05;4.72;;;2.17;;
73650;SDS011;61944;52.538;6.108;2023-04-03T08:21:32;3.25;;;1.58;;
73650;SDS011;61944;52.538;6.108;2023-04-03T08:23:57;5.82;;;2.55;;
73650;SDS011;61944;52.538;6.108;2023-04-03T08:26:23;5.22;;;2.35;;
73650;SDS011;61944;52.538;6.108;2023-04-03T08:28:48;4.40;;;1.50;;
73650;SDS011;61944;52.538;6.108;2023-04-03T08:31:15;6.82;;;1.90;;
73650;SDS011;61944;52.538;6.108;2023-04-03T08:33:43;3.30;;;2.15;;
73650;SDS011;61944;52.538;6.108;2023-04-03T08:36:16;4.60;;;1.90;;
73650;SDS011;61944;52.538;6.108;2023-04-03T08:38:43;5.60;;;2.10;;
73650;SDS011;61944;52.538;6.108;2023-04-03T08:49:31;3.15;;;1.90;;
73650;SDS011;61944;52.538;6.108;2023-04-03T08:52:01;3.95;;;1.77;;
73650;SDS011;61944;52.538;6.108;2023-04-03T08:54:32;5.03;;;1.77;;
73650;SDS011;61944;52.538;6.108;2023-04-03T08:57:00;2.28;;;1.48;;
73650;SDS011;61944;52.538;6.108;2023-04-03T08:59:32;2.38;;;1.75;;
73650;SDS011;61944;52.538;6.108;2023-04-03T09:02:00;7.53;;;2.90;;
73650;SDS011;61944;52.538;6.108;2023-04-03T09:04:31;4.90;;;1.47;;
73650;SDS011;61944;52.538;6.108;2023-04-03T09:07:00;3.47;;;1.63;;
73650;SDS011;61944;52.538;6.108;2023-04-03T09:09:38;4.93;;;1.50;;
73650;SDS011;61944;52.538;6.108;2023-04-03T09:14:39;2.63;;;1.38;;
73650;SDS011;61944;52.538;6.108;2023-04-03T09:20:07;2.78;;;1.15;;
73650;SDS011;61944;52.538;6.108;2023-04-03T09:22:54;4.95;;;2.00;;
73650;SDS011;61944;52.538;6.108;2023-04-03T09:25:24;4.00;;;1.40;;
73650;SDS011;61944;52.538;6.108;2023-04-03T09:27:55;1.50;;;1.13;;
73650;SDS011;61944;52.538;6.108;2023-04-03T09:30:22;1.95;;;1.35;;
73650;SDS011;61944;52.538;6.108;2023-04-03T09:32:51;3.67;;;1.40;;
73650;SDS011;61944;52.538;6.108;2023-04-03T09:35:19;1.92;;;1.08;;
73650;SDS011;61944;52.538;6.108;2023-04-03T09:37:50;3.25;;;1.35;;
73650;SDS011;61944;52.538;6.108;2023-04-03T09:40:34;3.28;;;1.27;;
73650;SDS011;61944;52.538;6.108;2023-04-03T09:45:41;1.75;;;1.40;;
73650;SDS011;61944;52.538;6.108;2023-04-03T09:50:38;7.50;;;1.50;;
73650;SDS011;61944;52.538;6.108;2023-04-03T09:56:25;2.13;;;1.23;;
73650;SDS011;61944;52.538;6.108;2023-04-03T09:58:50;7.05;;;1.65;;
73650;SDS011;61944;52.538;6.108;2023-04-03T10:01:22;3.92;;;1.10;;
73650;SDS011;61944;52.538;6.108;2023-04-03T10:06:32;3.90;;;1.00;;
73650;SDS011;61944;52.538;6.108;2023-04-03T10:09:04;1.55;;;1.13;;
73650;SDS011;61944;52.538;6.108;2023-04-03T10:11:47;0.93;;;0.82;;
73650;SDS011;61944;52.538;6.108;2023-04-03T10:14:21;1.63;;;0.90;;
73650;SDS011;61944;52.538;6.108;2023-04-03T10:16:48;4.53;;;1.42;;
73650;SDS011;61944;52.538;6.108;2023-04-03T10:22:41;2.95;;;1.10;;
73650;SDS011;61944;52.538;6.108;2023-04-03T10:25:12;2.15;;;1.00;;
73650;SDS011;61944;52.538;6.108;2023-04-03T10:33:51;5.00;;;1.10;;
73650;SDS011;61944;52.538;6.108;2023-04-03T10:39:54;1.83;;;1.08;;
73650;SDS011;61944;52.538;6.108;2023-04-03T10:42:42;3.10;;;1.10;;
73650;SDS011;61944;52.538;6.108;2023-04-03T10:53:41;1.13;;;0.90;;
73650;SDS011;61944;52.538;6.108;2023-04-03T10:59:58;2.30;;;1.10;;
73650;SDS011;61944;52.538;6.108;2023-04-03T11:02:30;2.45;;;1.10;;
73650;SDS011;61944;52.538;6.108;2023-04-03T11:05:13;5.05;;;1.67;;
73650;SDS011;61944;52.538;6.108;2023-04-03T11:07:47;3.95;;;2.03;;
73650;SDS011;61944;52.538;6.108;2023-04-03T11:15:34;2.30;;;1.08;;
73650;SDS011;61944;52.538;6.108;2023-04-03T11:20:37;3.28;;;0.93;;
73650;SDS011;61944;52.538;6.108;2023-04-03T11:25:52;3.30;;;1.10;;
73650;SDS011;61944;52.538;6.108;2023-04-03T11:28:24;3.60;;;1.30;;
73650;SDS011;61944;52.538;6.108;2023-04-03T11:36:43;3.20;;;1.05;;
73650;SDS011;61944;52.538;6.108;2023-04-03T11:41:49;10.63;;;5.47;;
73650;SDS011;61944;52.538;6.108;2023-04-03T11:47:04;6.50;;;1.70;;
73650;SDS011;61944;52.538;6.108;2023-04-03T12:05:49;3.88;;;1.50;;
73650;SDS011;61944;52.538;6.108;2023-04-03T12:08:21;2.50;;;1.17;;
73650;SDS011;61944;52.538;6.108;2023-04-03T12:13:33;8.50;;;1.23;;
73650;SDS011;61944;52.538;6.108;2023-04-03T12:15:59;2.13;;;0.93;;
73650;SDS011;61944;52.538;6.108;2023-04-03T12:18:31;2.53;;;0.93;;
73650;SDS011;61944;52.538;6.108;2023-04-03T12:22:02;2.75;;;1.10;;
73650;SDS011;61944;52.538;6.108;2023-04-03T12:29:25;2.70;;;1.30;;
73650;SDS011;61944;52.538;6.108;2023-04-03T12:34:56;3.72;;;1.20;;
73650;SDS011;61944;52.538;6.108;2023-04-03T12:48:30;3.30;;;1.38;;
73650;SDS011;61944;52.538;6.108;2023-04-03T12:50:59;1.33;;;1.13;;
73650;SDS011;61944;52.538;6.108;2023-04-03T12:53:26;2.78;;;1.63;;
73650;SDS011;61944;52.538;6.108;2023-04-03T12:55:55;2.95;;;1.20;;
73650;SDS011;61944;52.538;6.108;2023-04-03T12:58:23;2.42;;;1.20;;
73650;SDS011;61944;52.538;6.108;2023-04-03T13:03:50;3.58;;;1.30;;
73650;SDS011;61944;52.538;6.108;2023-04-03T13:06:26;2.67;;;1.23;;
73650;SDS011;61944;52.538;6.108;2023-04-03T13:08:56;3.33;;;1.27;;
73650;SDS011;61944;52.538;6.108;2023-04-03T13:11:23;4.00;;;1.63;;
73650;SDS011;61944;52.538;6.108;2023-04-03T13:13:54;3.33;;;1.30;;
73650;SDS011;61944;52.538;6.108;2023-04-03T13:16:21;3.92;;;1.02;;
73650;SDS011;61944;52.538;6.108;2023-04-03T13:18:50;2.72;;;1.40;;
73650;SDS011;61944;52.538;6.108;2023-04-03T13:21:18;4.05;;;1.40;;
73650;SDS011;61944;52.538;6.108;2023-04-03T13:23:49;2.88;;;1.42;;
73650;SDS011;61944;52.538;6.108;2023-04-03T13:26:17;3.45;;;1.25;;
73650;SDS011;61944;52.538;6.108;2023-04-03T13:28:45;2.92;;;1.25;;
73650;SDS011;61944;52.538;6.108;2023-04-03T13:33:38;3.08;;;2.00;;
73650;SDS011;61944;52.538;6.108;2023-04-03T13:36:18;3.78;;;1.10;;
73650;SDS011;61944;52.538;6.108;2023-04-03T13:38:57;4.30;;;1.58;;
73650;SDS011;61944;52.538;6.108;2023-04-03T13:41:32;3.45;;;1.42;;
73650;SDS011;61944;52.538;6.108;2023-04-03T13:46:47;2.88;;;1.40;;
73650;SDS011;61944;52.538;6.108;2023-04-03T13:52:17;3.55;;;1.20;;
73650;SDS011;61944;52.538;6.108;2023-04-03T13:54:58;9.65;;;1.48;;
73650;SDS011;61944;52.538;6.108;2023-04-03T13:57:25;3.85;;;1.20;;
73650;SDS011;61944;52.538;6.108;2023-04-03T13:59:53;2.22;;;1.30;;
73650;SDS011;61944;52.538;6.108;2023-04-03T14:02:21;2.50;;;1.45;;
73650;SDS011;61944;52.538;6.108;2023-04-03T14:04:55;2.15;;;1.10;;
73650;SDS011;61944;52.538;6.108;2023-04-03T14:07:25;6.82;;;2.60;;
73650;SDS011;61944;52.538;6.108;2023-04-03T14:09:51;7.63;;;1.55;;
73650;SDS011;61944;52.538;6.108;2023-04-03T14:14:46;3.47;;;1.52;;
73650;SDS011;61944;52.538;6.108;2023-04-03T14:17:16;4.88;;;1.92;;
73650;SDS011;61944;52.538;6.108;2023-04-03T14:19:44;3.07;;;1.20;;
73650;SDS011;61944;52.538;6.108;2023-04-03T14:24:41;3.47;;;1.60;;
73650;SDS011;61944;52.538;6.108;2023-04-03T14:27:11;5.00;;;1.85;;
73650;SDS011;61944;52.538;6.108;2023-04-03T14:29:48;3.65;;;1.25;;
73650;SDS011;61944;52.538;6.108;2023-04-03T14:32:14;4.72;;;1.63;;
73650;SDS011;61944;52.538;6.108;2023-04-03T14:34:41;3.17;;;1.80;;
73650;SDS011;61944;52.538;6.108;2023-04-03T14:37:13;4.47;;;1.25;;
73650;SDS011;61944;52.538;6.108;2023-04-03T14:39:45;3.22;;;1.30;;
73650;SDS011;61944;52.538;6.108;2023-04-03T14:42:13;4.70;;;1.55;;
73650;SDS011;61944;52.538;6.108;2023-04-03T14:44:41;2.90;;;1.38;;
73650;SDS011;61944;52.538;6.108;2023-04-03T14:47:10;4.88;;;1.55;;
73650;SDS011;61944;52.538;6.108;2023-04-03T14:49:41;3.55;;;1.42;;
73650;SDS011;61944;52.538;6.108;2023-04-03T14:52:10;2.38;;;1.48;;
73650;SDS011;61944;52.538;6.108;2023-04-03T14:54:43;3.70;;;1.65;;
73650;SDS011;61944;52.538;6.108;2023-04-03T14:57:08;4.85;;;1.70;;
73650;SDS011;61944;52.538;6.108;2023-04-03T14:59:37;3.45;;;1.80;;
73650;SDS011;61944;52.538;6.108;2023-04-03T15:02:05;7.40;;;1.70;;
73650;SDS011;61944;52.538;6.108;2023-04-03T15:04:47;2.38;;;1.42;;
73650;SDS011;61944;52.538;6.108;2023-04-03T15:07:12;1.85;;;1.42;;
73650;SDS011;61944;52.538;6.108;2023-04-03T15:09:37;4.43;;;1.42;;
73650;SDS011;61944;52.538;6.108;2023-04-03T15:12:03;3.90;;;1.25;;
73650;SDS011;61944;52.538;6.108;2023-04-03T15:14:28;3.33;;;1.40;;
73650;SDS011;61944;52.538;6.108;2023-04-03T15:16:54;3.97;;;1.58;;
73650;SDS011;61944;52.538;6.108;2023-04-03T15:19:19;2.78;;;1.40;;
73650;SDS011;61944;52.538;6.108;2023-04-03T15:21:44;3.47;;;1.75;;
73650;SDS011;61944;52.538;6.108;2023-04-03T15:24:10;6.35;;;1.50;;
73650;SDS011;61944;52.538;6.108;2023-04-03T15:26:36;6.40;;;2.03;;
73650;SDS011;61944;52.538;6.108;2023-04-03T15:29:03;4.68;;;1.90;;
73650;SDS011;61944;52.538;6.108;2023-04-03T15:31:29;3.63;;;1.70;;
73650;SDS011;61944;52.538;6.108;2023-04-03T15:33:54;8.32;;;2.08;;
73650;SDS011;61944;52.538;6.108;2023-04-03T15:36:20;5.00;;;2.38;;
73650;SDS011;61944;52.538;6.108;2023-04-03T15:38:45;4.07;;;1.52;;
73650;SDS011;61944;52.538;6.108;2023-04-03T15:41:11;3.42;;;1.67;;
73650;SDS011;61944;52.538;6.108;2023-04-03T15:43:36;5.32;;;1.90;;
73650;SDS011;61944;52.538;6.108;2023-04-03T15:46:05;5.10;;;2.10;;
73650;SDS011;61944;52.538;6.108;2023-04-03T15:48:31;5.15;;;1.90;;
73650;SDS011;61944;52.538;6.108;2023-04-03T15:50:56;2.55;;;1.50;;
73650;SDS011;61944;52.538;6.108;2023-04-03T15:53:22;3.65;;;1.80;;
73650;SDS011;61944;52.538;6.108;2023-04-03T15:55:48;6.63;;;1.70;;
73650;SDS011;61944;52.538;6.108;2023-04-03T15:58:13;3.83;;;1.75;;
73650;SDS011;61944;52.538;6.108;2023-04-03T16:00:38;2.67;;;1.40;;
73650;SDS011;61944;52.538;6.108;2023-04-03T16:03:06;3.90;;;1.55;;
73650;SDS011;61944;52.538;6.108;2023-04-03T16:05:35;2.03;;;1.73;;
73650;SDS011;61944;52.538;6.108;2023-04-03T16:08:02;2.45;;;1.38;;
73650;SDS011;61944;52.538;6.108;2023-04-03T16:10:28;3.03;;;1.48;;
73650;SDS011;61944;52.538;6.108;2023-04-03T16:12:54;3.63;;;1.70;;
73650;SDS011;61944;52.538;6.108;2023-04-03T16:15:20;3.53;;;1.40;;
73650;SDS011;61944;52.538;6.108;2023-04-03T16:17:45;2.95;;;1.73;;
73650;SDS011;61944;52.538;6.108;2023-04-03T16:20:13;2.55;;;1.42;;
73650;SDS011;61944;52.538;6.108;2023-04-03T16:22:39;3.67;;;2.13;;
73650;SDS011;61944;52.538;6.108;2023-04-03T16:25:06;4.85;;;1.88;;
73650;SDS011;61944;52.538;6.108;2023-04-03T16:27:32;2.92;;;1.65;;
73650;SDS011;61944;52.538;6.108;2023-04-03T16:29:58;2.92;;;1.52;;
73650;SDS011;61944;52.538;6.108;2023-04-03T16:32:23;4.03;;;1.80;;
73650;SDS011;61944;52.538;6.108;2023-04-03T16:34:52;4.60;;;1.98;;
73650;SDS011;61944;52.538;6.108;2023-04-03T16:37:18;5.03;;;1.98;;
73650;SDS011;61944;52.538;6.108;2023-04-03T16:39:43;3.15;;;1.50;;
73650;SDS011;61944;52.538;6.108;2023-04-03T16:42:09;3.08;;;1.80;;
73650;SDS011;61944;52.538;6.108;2023-04-03T16:44:35;2.80;;;1.60;;
73650;SDS011;61944;52.538;6.108;2023-04-03T16:47:01;6.18;;;1.77;;
73650;SDS011;61944;52.538;6.108;2023-04-03T16:49:26;5.43;;;1.83;;
73650;SDS011;61944;52.538;6.108;2023-04-03T16:51:57;3.90;;;1.83;;
73650;SDS011;61944;52.538;6.108;2023-04-03T16:54:22;7.20;;;2.58;;
73650;SDS011;61944;52.538;6.108;2023-04-03T16:56:48;7.03;;;2.10;;
73650;SDS011;61944;52.538;6.108;2023-04-03T16:59:13;4.68;;;1.88;;
73650;SDS011;61944;52.538;6.108;2023-04-03T17:01:38;4.65;;;1.70;;
73650;SDS011;61944;52.538;6.108;2023-04-03T17:04:06;3.00;;;1.45;;